New Lexington, OH (43764)

5:31 PM EST on February 13, 2016 (GMT -0500)
Just east of New Lexington | | Change Station
CLOSE
Current Station
Personal Weather Station
Location: New Lexington, OH
Elevation: 1001 ft
Nearby Weather Stations

Elev 1001 ft 39.73 °N, 82.16 °W | Updated 1 minute ago

Overcast
Overcast
13.5 °F
Feels Like 2 °F
N
9.0
Wind Variable Wind from WNW
Gusts 9.0 mph

Today
High -- | Low -- °F
--% Chance of Precip.
Yesterday
High -- | Low -- °F
Precip. -- in
Pressure 30.50 in
Visibility 10.0 miles
Clouds Scattered Clouds 4000 ft
Mostly Cloudy 4800 ft
Overcast 6000 ft
Windchill 2 °F
Dew Point 5 °F
Humidity 67%
Rainfall 0.00 in
Snow Depth Not available.
7:24 AM 6:02 PM
Waxing Crescent, 34% visible
METAR KZZV 132153Z AUTO 28013KT 10SM SCT040 BKN048 OVC060 M09/M18 A3044 RMK AO2 SNB08E18 SLP326 P0000 T10891178
Pressure 30.50 in
Visibility 10.0 miles
Clouds Scattered Clouds 4000 ft
Mostly Cloudy 4800 ft
Overcast 6000 ft
Windchill 2 °F
Dew Point 5 °F
Humidity 67%
Rainfall 0.00 in
Snow Depth Not available.
7:24 AM 6:02 PM
Waxing Crescent, 34% visible
METAR KZZV 132153Z AUTO 28013KT 10SM SCT040 BKN048 OVC060 M09/M18 A3044 RMK AO2 SNB08E18 SLP326 P0000 T10891178

10-Day Weather Forecast

Almanac

Astronomy

Feb. 13, 2016 Rise Set
Actual Time
Civil Twilight
Nautical Twilight
Astronomical Twilight
Moon
Length of Visible Light
Length of Day
Tomorrow will be .
, % of the Moon is Illuminated

Today's Extremes

State Highs State Lows

Community

WunderPhotos

Upload Photos

1,892,688 photos uploaded!

WunderBlog® & News

Nearby

Air Quality

  Air Quality AQ Index Pollutant
Not available.

Snow Depth

Station Depth Elevation

Earthquake Activity

City Distance Mag. Time & Date
Minimum magnitude displayed is 2.5.

Coastal Water Temperatures

Place Temperature

Stations

Nearby Weather Stations

Station Location Temp. Windchill Dew Point Humidity Wind Precip. Elev Updated Type
                   

Watches & Warnings

There are currently no watches in effect.